sensor_id;sensor_type;location;lat;lon;timestamp;P1;durP1;ratioP1;P2;durP2;ratioP2
31378;SDS011;61664;48.112;11.662;2023-02-15T00:02:00;10.65;;;4.88;;
31378;SDS011;61664;48.112;11.662;2023-02-15T00:04:28;27.50;;;4.85;;
31378;SDS011;61664;48.112;11.662;2023-02-15T00:07:16;20.58;;;4.80;;
31378;SDS011;61664;48.112;11.662;2023-02-15T00:09:45;12.65;;;4.63;;
31378;SDS011;61664;48.112;11.662;2023-02-15T00:12:13;3.72;;;3.38;;
31378;SDS011;61664;48.112;11.662;2023-02-15T00:14:41;19.55;;;5.15;;
31378;SDS011;61664;48.112;11.662;2023-02-15T00:17:08;14.50;;;4.72;;
31378;SDS011;61664;48.112;11.662;2023-02-15T00:19:35;14.27;;;4.60;;
31378;SDS011;61664;48.112;11.662;2023-02-15T00:22:02;41.88;;;5.93;;
31378;SDS011;61664;48.112;11.662;2023-02-15T00:24:29;14.48;;;4.13;;
31378;SDS011;61664;48.112;11.662;2023-02-15T00:26:56;29.42;;;6.00;;
31378;SDS011;61664;48.112;11.662;2023-02-15T00:29:23;8.80;;;3.70;;
31378;SDS011;61664;48.112;11.662;2023-02-15T00:31:50;18.08;;;4.72;;
31378;SDS011;61664;48.112;11.662;2023-02-15T00:34:19;6.80;;;3.95;;
31378;SDS011;61664;48.112;11.662;2023-02-15T00:36:48;5.65;;;4.45;;
31378;SDS011;61664;48.112;11.662;2023-02-15T00:39:16;21.85;;;4.88;;
31378;SDS011;61664;48.112;11.662;2023-02-15T00:41:44;15.10;;;4.90;;
31378;SDS011;61664;48.112;11.662;2023-02-15T00:44:13;19.83;;;5.75;;
31378;SDS011;61664;48.112;11.662;2023-02-15T00:46:40;4.72;;;4.28;;
31378;SDS011;61664;48.112;11.662;2023-02-15T00:49:08;8.60;;;4.22;;
31378;SDS011;61664;48.112;11.662;2023-02-15T00:51:35;13.85;;;5.00;;
31378;SDS011;61664;48.112;11.662;2023-02-15T00:54:03;10.13;;;4.68;;
31378;SDS011;61664;48.112;11.662;2023-02-15T00:56:30;5.15;;;4.10;;
31378;SDS011;61664;48.112;11.662;2023-02-15T00:58:57;15.50;;;5.18;;
31378;SDS011;61664;48.112;11.662;2023-02-15T01:01:24;4.82;;;4.43;;
31378;SDS011;61664;48.112;11.662;2023-02-15T01:03:51;5.35;;;4.57;;
31378;SDS011;61664;48.112;11.662;2023-02-15T01:06:19;28.10;;;5.72;;
31378;SDS011;61664;48.112;11.662;2023-02-15T01:08:46;6.53;;;4.35;;
31378;SDS011;61664;48.112;11.662;2023-02-15T01:11:15;9.82;;;3.90;;
31378;SDS011;61664;48.112;11.662;2023-02-15T01:13:52;24.35;;;4.47;;
31378;SDS011;61664;48.112;11.662;2023-02-15T01:16:23;7.78;;;4.10;;
31378;SDS011;61664;48.112;11.662;2023-02-15T01:18:54;12.40;;;4.55;;
31378;SDS011;61664;48.112;11.662;2023-02-15T01:21:22;7.05;;;4.18;;
31378;SDS011;61664;48.112;11.662;2023-02-15T01:23:51;4.38;;;3.97;;
31378;SDS011;61664;48.112;11.662;2023-02-15T01:26:19;10.90;;;5.07;;
31378;SDS011;61664;48.112;11.662;2023-02-15T01:28:49;5.38;;;4.40;;
31378;SDS011;61664;48.112;11.662;2023-02-15T01:31:18;8.10;;;4.47;;
31378;SDS011;61664;48.112;11.662;2023-02-15T01:33:47;7.85;;;4.70;;
31378;SDS011;61664;48.112;11.662;2023-02-15T01:36:14;5.95;;;4.13;;
31378;SDS011;61664;48.112;11.662;2023-02-15T01:38:43;8.32;;;4.53;;
31378;SDS011;61664;48.112;11.662;2023-02-15T01:41:10;4.30;;;3.90;;
31378;SDS011;61664;48.112;11.662;2023-02-15T01:43:47;22.65;;;4.65;;
31378;SDS011;61664;48.112;11.662;2023-02-15T01:46:20;13.27;;;4.88;;
31378;SDS011;61664;48.112;11.662;2023-02-15T01:48:55;6.03;;;4.38;;
31378;SDS011;61664;48.112;11.662;2023-02-15T01:51:28;13.95;;;5.03;;
31378;SDS011;61664;48.112;11.662;2023-02-15T01:54:09;5.80;;;4.32;;
31378;SDS011;61664;48.112;11.662;2023-02-15T01:56:47;9.25;;;4.63;;
31378;SDS011;61664;48.112;11.662;2023-02-15T01:59:16;9.93;;;5.38;;
31378;SDS011;61664;48.112;11.662;2023-02-15T02:01:47;7.00;;;4.82;;
31378;SDS011;61664;48.112;11.662;2023-02-15T02:07:25;5.03;;;4.43;;
31378;SDS011;61664;48.112;11.662;2023-02-15T02:09:56;6.25;;;4.80;;
31378;SDS011;61664;48.112;11.662;2023-02-15T02:12:23;5.85;;;5.07;;
31378;SDS011;61664;48.112;11.662;2023-02-15T02:14:52;11.45;;;4.72;;
31378;SDS011;61664;48.112;11.662;2023-02-15T02:28:47;12.57;;;4.63;;
31378;SDS011;61664;48.112;11.662;2023-02-15T02:37:37;4.28;;;3.88;;
31378;SDS011;61664;48.112;11.662;2023-02-15T02:40:42;4.05;;;3.65;;
31378;SDS011;61664;48.112;11.662;2023-02-15T02:43:38;5.53;;;4.13;;
31378;SDS011;61664;48.112;11.662;2023-02-15T02:49:07;12.95;;;4.60;;
31378;SDS011;61664;48.112;11.662;2023-02-15T02:51:34;5.57;;;4.18;;
31378;SDS011;61664;48.112;11.662;2023-02-15T02:54:02;5.32;;;4.80;;
31378;SDS011;61664;48.112;11.662;2023-02-15T02:56:37;6.07;;;4.05;;
31378;SDS011;61664;48.112;11.662;2023-02-15T02:59:25;4.53;;;4.13;;
31378;SDS011;61664;48.112;11.662;2023-02-15T03:02:01;5.28;;;4.72;;
31378;SDS011;61664;48.112;11.662;2023-02-15T03:04:45;5.00;;;3.85;;
31378;SDS011;61664;48.112;11.662;2023-02-15T03:07:24;12.02;;;4.07;;
31378;SDS011;61664;48.112;11.662;2023-02-15T03:09:55;7.65;;;4.00;;
31378;SDS011;61664;48.112;11.662;2023-02-15T03:12:28;5.35;;;4.43;;
31378;SDS011;61664;48.112;11.662;2023-02-15T03:15:06;9.82;;;4.18;;
31378;SDS011;61664;48.112;11.662;2023-02-15T03:18:24;3.50;;;3.20;;
31378;SDS011;61664;48.112;11.662;2023-02-15T03:20:58;7.05;;;4.55;;
31378;SDS011;61664;48.112;11.662;2023-02-15T03:25:59;9.20;;;3.33;;
31378;SDS011;61664;48.112;11.662;2023-02-15T03:28:41;4.63;;;3.40;;
31378;SDS011;61664;48.112;11.662;2023-02-15T03:31:12;5.00;;;4.50;;
31378;SDS011;61664;48.112;11.662;2023-02-15T03:33:45;9.20;;;4.30;;
31378;SDS011;61664;48.112;11.662;2023-02-15T03:36:29;4.45;;;4.05;;
31378;SDS011;61664;48.112;11.662;2023-02-15T03:39:35;8.88;;;4.55;;
31378;SDS011;61664;48.112;11.662;2023-02-15T03:42:19;4.53;;;4.13;;
31378;SDS011;61664;48.112;11.662;2023-02-15T03:45:02;11.00;;;3.97;;
31378;SDS011;61664;48.112;11.662;2023-02-15T03:47:37;4.57;;;4.20;;
31378;SDS011;61664;48.112;11.662;2023-02-15T03:50:12;9.40;;;3.90;;
31378;SDS011;61664;48.112;11.662;2023-02-15T03:53:04;4.88;;;3.90;;
31378;SDS011;61664;48.112;11.662;2023-02-15T03:55:36;4.72;;;4.30;;
31378;SDS011;61664;48.112;11.662;2023-02-15T03:58:03;3.63;;;3.33;;
31378;SDS011;61664;48.112;11.662;2023-02-15T04:00:51;7.22;;;3.70;;
31378;SDS011;61664;48.112;11.662;2023-02-15T04:03:49;6.65;;;3.97;;
31378;SDS011;61664;48.112;11.662;2023-02-15T04:06:24;4.05;;;3.65;;
31378;SDS011;61664;48.112;11.662;2023-02-15T04:08:51;14.07;;;4.20;;
31378;SDS011;61664;48.112;11.662;2023-02-15T04:11:37;3.97;;;3.63;;
31378;SDS011;61664;48.112;11.662;2023-02-15T04:14:04;4.82;;;4.18;;
31378;SDS011;61664;48.112;11.662;2023-02-15T04:16:50;4.35;;;3.95;;
31378;SDS011;61664;48.112;11.662;2023-02-15T04:19:18;22.05;;;5.13;;
31378;SDS011;61664;48.112;11.662;2023-02-15T04:22:03;6.25;;;4.88;;
31378;SDS011;61664;48.112;11.662;2023-02-15T04:24:48;4.40;;;3.97;;
31378;SDS011;61664;48.112;11.662;2023-02-15T04:27:34;4.53;;;3.95;;
31378;SDS011;61664;48.112;11.662;2023-02-15T04:30:02;7.50;;;3.88;;
31378;SDS011;61664;48.112;11.662;2023-02-15T04:32:30;4.38;;;3.95;;
31378;SDS011;61664;48.112;11.662;2023-02-15T04:34:57;4.60;;;4.20;;
31378;SDS011;61664;48.112;11.662;2023-02-15T04:37:24;4.78;;;4.38;;
31378;SDS011;61664;48.112;11.662;2023-02-15T04:39:51;10.07;;;4.90;;
31378;SDS011;61664;48.112;11.662;2023-02-15T04:42:18;4.90;;;4.40;;
31378;SDS011;61664;48.112;11.662;2023-02-15T04:44:45;4.75;;;4.32;;
31378;SDS011;61664;48.112;11.662;2023-02-15T04:47:12;4.13;;;3.78;;
31378;SDS011;61664;48.112;11.662;2023-02-15T04:49:38;5.32;;;4.70;;
31378;SDS011;61664;48.112;11.662;2023-02-15T04:52:08;8.30;;;4.20;;
31378;SDS011;61664;48.112;11.662;2023-02-15T04:54:36;5.53;;;4.38;;
31378;SDS011;61664;48.112;11.662;2023-02-15T04:57:04;9.38;;;4.72;;
31378;SDS011;61664;48.112;11.662;2023-02-15T04:59:32;4.43;;;4.00;;
31378;SDS011;61664;48.112;11.662;2023-02-15T05:01:59;4.70;;;4.05;;
31378;SDS011;61664;48.112;11.662;2023-02-15T05:04:26;4.35;;;3.95;;
31378;SDS011;61664;48.112;11.662;2023-02-15T05:06:52;9.93;;;4.93;;
31378;SDS011;61664;48.112;11.662;2023-02-15T05:09:19;14.35;;;4.85;;
31378;SDS011;61664;48.112;11.662;2023-02-15T05:11:47;4.47;;;4.15;;
31378;SDS011;61664;48.112;11.662;2023-02-15T05:14:13;8.73;;;4.43;;
31378;SDS011;61664;48.112;11.662;2023-02-15T05:16:40;5.10;;;4.60;;
31378;SDS011;61664;48.112;11.662;2023-02-15T05:19:07;6.28;;;4.25;;
31378;SDS011;61664;48.112;11.662;2023-02-15T05:21:34;4.68;;;4.07;;
31378;SDS011;61664;48.112;11.662;2023-02-15T05:24:01;6.60;;;4.00;;
31378;SDS011;61664;48.112;11.662;2023-02-15T05:26:48;5.00;;;4.55;;
31378;SDS011;61664;48.112;11.662;2023-02-15T05:29:34;5.28;;;4.80;;
31378;SDS011;61664;48.112;11.662;2023-02-15T05:32:01;5.03;;;4.57;;
31378;SDS011;61664;48.112;11.662;2023-02-15T05:34:28;6.15;;;4.65;;
31378;SDS011;61664;48.112;11.662;2023-02-15T05:36:55;7.93;;;5.18;;
31378;SDS011;61664;48.112;11.662;2023-02-15T05:39:22;6.05;;;5.45;;
31378;SDS011;61664;48.112;11.662;2023-02-15T05:41:49;7.47;;;5.70;;
31378;SDS011;61664;48.112;11.662;2023-02-15T05:44:16;5.03;;;4.63;;
31378;SDS011;61664;48.112;11.662;2023-02-15T05:46:43;7.68;;;5.18;;
31378;SDS011;61664;48.112;11.662;2023-02-15T05:49:10;5.70;;;4.82;;
31378;SDS011;61664;48.112;11.662;2023-02-15T05:51:36;7.05;;;5.55;;
31378;SDS011;61664;48.112;11.662;2023-02-15T05:54:03;5.85;;;4.60;;
31378;SDS011;61664;48.112;11.662;2023-02-15T05:56:30;5.72;;;4.72;;
31378;SDS011;61664;48.112;11.662;2023-02-15T05:58:57;5.32;;;4.78;;
31378;SDS011;61664;48.112;11.662;2023-02-15T06:01:24;6.47;;;4.93;;
31378;SDS011;61664;48.112;11.662;2023-02-15T06:03:51;5.22;;;4.72;;
31378;SDS011;61664;48.112;11.662;2023-02-15T06:06:18;5.57;;;5.05;;
31378;SDS011;61664;48.112;11.662;2023-02-15T06:08:45;4.38;;;3.97;;
31378;SDS011;61664;48.112;11.662;2023-02-15T06:11:12;5.82;;;5.07;;
31378;SDS011;61664;48.112;11.662;2023-02-15T06:13:39;4.80;;;4.38;;
31378;SDS011;61664;48.112;11.662;2023-02-15T06:16:06;5.82;;;5.22;;
31378;SDS011;61664;48.112;11.662;2023-02-15T06:18:33;5.15;;;4.65;;
31378;SDS011;61664;48.112;11.662;2023-02-15T06:21:00;4.97;;;4.47;;
31378;SDS011;61664;48.112;11.662;2023-02-15T06:23:27;6.47;;;4.63;;
31378;SDS011;61664;48.112;11.662;2023-02-15T06:25:54;5.13;;;4.60;;
31378;SDS011;61664;48.112;11.662;2023-02-15T06:28:21;5.20;;;4.70;;
31378;SDS011;61664;48.112;11.662;2023-02-15T06:30:48;5.38;;;4.85;;
31378;SDS011;61664;48.112;11.662;2023-02-15T06:33:15;5.40;;;4.80;;
31378;SDS011;61664;48.112;11.662;2023-02-15T06:35:42;4.70;;;4.28;;
31378;SDS011;61664;48.112;11.662;2023-02-15T06:38:09;5.78;;;5.20;;
31378;SDS011;61664;48.112;11.662;2023-02-15T06:40:36;7.30;;;5.85;;
31378;SDS011;61664;48.112;11.662;2023-02-15T06:43:03;5.30;;;4.70;;
31378;SDS011;61664;48.112;11.662;2023-02-15T06:45:30;5.15;;;4.65;;
31378;SDS011;61664;48.112;11.662;2023-02-15T06:47:57;4.88;;;4.45;;
31378;SDS011;61664;48.112;11.662;2023-02-15T06:50:24;7.28;;;5.43;;
31378;SDS011;61664;48.112;11.662;2023-02-15T06:52:55;4.60;;;4.20;;
31378;SDS011;61664;48.112;11.662;2023-02-15T06:55:23;5.93;;;5.30;;
31378;SDS011;61664;48.112;11.662;2023-02-15T06:57:51;5.47;;;4.97;;
31378;SDS011;61664;48.112;11.662;2023-02-15T07:00:18;5.75;;;5.25;;
31378;SDS011;61664;48.112;11.662;2023-02-15T07:02:46;8.18;;;5.32;;
31378;SDS011;61664;48.112;11.662;2023-02-15T07:05:13;6.05;;;4.95;;
31378;SDS011;61664;48.112;11.662;2023-02-15T07:07:40;6.20;;;4.85;;
31378;SDS011;61664;48.112;11.662;2023-02-15T07:10:07;5.57;;;4.90;;
31378;SDS011;61664;48.112;11.662;2023-02-15T07:12:34;5.28;;;4.70;;
31378;SDS011;61664;48.112;11.662;2023-02-15T07:15:11;6.90;;;4.88;;
31378;SDS011;61664;48.112;11.662;2023-02-15T07:17:43;9.85;;;4.65;;
31378;SDS011;61664;48.112;11.662;2023-02-15T07:20:12;8.15;;;5.70;;
31378;SDS011;61664;48.112;11.662;2023-02-15T07:22:45;5.28;;;4.80;;
31378;SDS011;61664;48.112;11.662;2023-02-15T07:25:12;5.78;;;5.00;;
31378;SDS011;61664;48.112;11.662;2023-02-15T07:27:39;5.63;;;5.07;;
31378;SDS011;61664;48.112;11.662;2023-02-15T07:30:08;6.68;;;5.43;;
31378;SDS011;61664;48.112;11.662;2023-02-15T07:32:38;5.93;;;5.20;;
31378;SDS011;61664;48.112;11.662;2023-02-15T07:35:24;5.25;;;4.75;;
31378;SDS011;61664;48.112;11.662;2023-02-15T07:37:52;9.05;;;5.43;;
31378;SDS011;61664;48.112;11.662;2023-02-15T07:40:20;5.57;;;5.07;;
31378;SDS011;61664;48.112;11.662;2023-02-15T07:42:49;9.48;;;5.90;;
31378;SDS011;61664;48.112;11.662;2023-02-15T07:45:21;7.10;;;5.18;;
31378;SDS011;61664;48.112;11.662;2023-02-15T07:47:48;6.85;;;4.82;;
31378;SDS011;61664;48.112;11.662;2023-02-15T07:50:15;6.25;;;5.40;;
31378;SDS011;61664;48.112;11.662;2023-02-15T07:52:42;5.10;;;4.70;;
31378;SDS011;61664;48.112;11.662;2023-02-15T07:55:09;8.82;;;6.25;;
31378;SDS011;61664;48.112;11.662;2023-02-15T07:57:45;6.72;;;5.63;;
31378;SDS011;61664;48.112;11.662;2023-02-15T08:00:17;5.95;;;5.32;;
31378;SDS011;61664;48.112;11.662;2023-02-15T08:02:50;7.72;;;5.80;;
31378;SDS011;61664;48.112;11.662;2023-02-15T08:05:40;10.27;;;5.70;;
31378;SDS011;61664;48.112;11.662;2023-02-15T08:08:09;5.78;;;5.25;;
31378;SDS011;61664;48.112;11.662;2023-02-15T08:14:10;6.50;;;5.65;;
31378;SDS011;61664;48.112;11.662;2023-02-15T08:16:48;6.07;;;5.40;;
31378;SDS011;61664;48.112;11.662;2023-02-15T08:19:22;5.95;;;5.38;;
31378;SDS011;61664;48.112;11.662;2023-02-15T08:21:53;6.32;;;5.68;;
31378;SDS011;61664;48.112;11.662;2023-02-15T08:24:36;6.20;;;5.60;;
31378;SDS011;61664;48.112;11.662;2023-02-15T08:27:04;9.43;;;7.07;;
31378;SDS011;61664;48.112;11.662;2023-02-15T08:29:36;6.60;;;5.60;;
31378;SDS011;61664;48.112;11.662;2023-02-15T08:32:06;5.55;;;4.93;;
31378;SDS011;61664;48.112;11.662;2023-02-15T08:34:37;8.13;;;6.32;;
31378;SDS011;61664;48.112;11.662;2023-02-15T08:37:06;6.13;;;5.55;;
31378;SDS011;61664;48.112;11.662;2023-02-15T08:39:35;8.23;;;5.85;;
31378;SDS011;61664;48.112;11.662;2023-02-15T08:42:03;6.25;;;5.32;;
31378;SDS011;61664;48.112;11.662;2023-02-15T08:44:30;6.93;;;5.63;;
31378;SDS011;61664;48.112;11.662;2023-02-15T08:46:57;6.35;;;5.68;;
31378;SDS011;61664;48.112;11.662;2023-02-15T08:49:29;7.07;;;5.90;;
31378;SDS011;61664;48.112;11.662;2023-02-15T08:51:57;7.13;;;6.10;;
31378;SDS011;61664;48.112;11.662;2023-02-15T08:54:23;6.03;;;5.45;;
31378;SDS011;61664;48.112;11.662;2023-02-15T08:56:50;9.82;;;5.75;;
31378;SDS011;61664;48.112;11.662;2023-02-15T08:59:18;6.97;;;5.28;;
31378;SDS011;61664;48.112;11.662;2023-02-15T09:01:48;6.93;;;6.22;;
31378;SDS011;61664;48.112;11.662;2023-02-15T09:04:17;7.47;;;6.03;;
31378;SDS011;61664;48.112;11.662;2023-02-15T09:06:46;6.95;;;6.22;;
31378;SDS011;61664;48.112;11.662;2023-02-15T09:09:15;6.00;;;5.47;;
31378;SDS011;61664;48.112;11.662;2023-02-15T09:11:44;6.47;;;5.82;;
31378;SDS011;61664;48.112;11.662;2023-02-15T09:14:14;6.68;;;5.93;;
31378;SDS011;61664;48.112;11.662;2023-02-15T09:16:46;6.95;;;5.75;;
31378;SDS011;61664;48.112;11.662;2023-02-15T09:19:18;6.45;;;5.75;;
31378;SDS011;61664;48.112;11.662;2023-02-15T09:21:48;6.18;;;5.57;;
31378;SDS011;61664;48.112;11.662;2023-02-15T09:24:15;5.90;;;5.40;;
31378;SDS011;61664;48.112;11.662;2023-02-15T09:26:44;9.00;;;6.15;;
31378;SDS011;61664;48.112;11.662;2023-02-15T09:29:13;5.53;;;4.97;;
31378;SDS011;61664;48.112;11.662;2023-02-15T09:31:44;6.28;;;5.65;;
31378;SDS011;61664;48.112;11.662;2023-02-15T09:34:15;5.00;;;4.63;;
31378;SDS011;61664;48.112;11.662;2023-02-15T09:36:45;5.00;;;4.57;;
31378;SDS011;61664;48.112;11.662;2023-02-15T09:39:33;5.50;;;5.00;;
31378;SDS011;61664;48.112;11.662;2023-02-15T09:46:02;5.22;;;4.82;;
31378;SDS011;61664;48.112;11.662;2023-02-15T09:48:21;5.55;;;5.10;;
31378;SDS011;61664;48.112;11.662;2023-02-15T09:51:32;4.50;;;4.15;;
31378;SDS011;61664;48.112;11.662;2023-02-15T09:54:26;5.75;;;4.20;;
31378;SDS011;61664;48.112;11.662;2023-02-15T09:57:33;4.70;;;4.38;;
31378;SDS011;61664;48.112;11.662;2023-02-15T10:03:41;4.47;;;4.18;;
31378;SDS011;61664;48.112;11.662;2023-02-15T10:08:48;4.88;;;4.47;;
31378;SDS011;61664;48.112;11.662;2023-02-15T10:12:25;3.75;;;3.45;;
31378;SDS011;61664;48.112;11.662;2023-02-15T10:20:17;3.70;;;3.40;;
31378;SDS011;61664;48.112;11.662;2023-02-15T10:25:51;4.15;;;3.85;;
31378;SDS011;61664;48.112;11.662;2023-02-15T10:34:18;3.60;;;3.30;;
31378;SDS011;61664;48.112;11.662;2023-02-15T10:42:46;4.57;;;4.18;;
31378;SDS011;61664;48.112;11.662;2023-02-15T10:45:23;4.18;;;3.88;;
31378;SDS011;61664;48.112;11.662;2023-02-15T10:51:08;4.70;;;4.20;;
31378;SDS011;61664;48.112;11.662;2023-02-15T10:54:05;4.20;;;3.90;;
31378;SDS011;61664;48.112;11.662;2023-02-15T10:56:59;4.78;;;4.32;;
31378;SDS011;61664;48.112;11.662;2023-02-15T11:08:02;6.05;;;4.38;;
31378;SDS011;61664;48.112;11.662;2023-02-15T11:10:35;6.78;;;4.93;;
31378;SDS011;61664;48.112;11.662;2023-02-15T11:13:22;5.75;;;5.20;;
31378;SDS011;61664;48.112;11.662;2023-02-15T11:15:59;7.28;;;6.63;;
31378;SDS011;61664;48.112;11.662;2023-02-15T11:21:20;6.18;;;5.25;;
31378;SDS011;61664;48.112;11.662;2023-02-15T11:24:13;6.40;;;5.80;;
31378;SDS011;61664;48.112;11.662;2023-02-15T11:27:12;6.47;;;5.97;;
31378;SDS011;61664;48.112;11.662;2023-02-15T11:30:10;6.10;;;5.50;;
31378;SDS011;61664;48.112;11.662;2023-02-15T11:32:43;6.32;;;5.72;;
31378;SDS011;61664;48.112;11.662;2023-02-15T11:40:51;7.13;;;6.10;;
31378;SDS011;61664;48.112;11.662;2023-02-15T11:43:39;6.22;;;5.60;;
31378;SDS011;61664;48.112;11.662;2023-02-15T11:46:20;5.75;;;5.13;;
31378;SDS011;61664;48.112;11.662;2023-02-15T11:48:47;6.60;;;6.00;;
31378;SDS011;61664;48.112;11.662;2023-02-15T11:51:16;6.53;;;5.93;;
31378;SDS011;61664;48.112;11.662;2023-02-15T11:53:49;7.38;;;5.93;;
31378;SDS011;61664;48.112;11.662;2023-02-15T11:56:18;6.47;;;5.68;;
31378;SDS011;61664;48.112;11.662;2023-02-15T12:01:45;6.88;;;6.18;;
31378;SDS011;61664;48.112;11.662;2023-02-15T12:10:00;6.65;;;6.05;;
31378;SDS011;61664;48.112;11.662;2023-02-15T12:12:43;6.05;;;5.45;;
31378;SDS011;61664;48.112;11.662;2023-02-15T12:15:11;6.57;;;5.88;;
31378;SDS011;61664;48.112;11.662;2023-02-15T12:22:48;7.90;;;6.35;;
31378;SDS011;61664;48.112;11.662;2023-02-15T12:25:43;7.10;;;6.30;;
31378;SDS011;61664;48.112;11.662;2023-02-15T12:31:07;6.38;;;5.63;;
31378;SDS011;61664;48.112;11.662;2023-02-15T12:33:52;8.00;;;5.20;;
31378;SDS011;61664;48.112;11.662;2023-02-15T12:36:29;12.13;;;6.25;;
31378;SDS011;61664;48.112;11.662;2023-02-15T12:41:38;10.43;;;6.17;;
31378;SDS011;61664;48.112;11.662;2023-02-15T12:44:31;8.65;;;5.78;;
31378;SDS011;61664;48.112;11.662;2023-02-15T12:49:43;8.20;;;6.45;;
31378;SDS011;61664;48.112;11.662;2023-02-15T12:52:29;8.13;;;6.95;;
31378;SDS011;61664;48.112;11.662;2023-02-15T12:54:56;6.90;;;5.97;;
31378;SDS011;61664;48.112;11.662;2023-02-15T12:58:06;6.95;;;5.97;;
31378;SDS011;61664;48.112;11.662;2023-02-15T13:00:44;6.32;;;5.72;;
31378;SDS011;61664;48.112;11.662;2023-02-15T13:03:19;12.40;;;6.13;;
31378;SDS011;61664;48.112;11.662;2023-02-15T13:05:53;16.45;;;6.93;;
31378;SDS011;61664;48.112;11.662;2023-02-15T13:08:27;8.38;;;6.82;;
31378;SDS011;61664;48.112;11.662;2023-02-15T13:10:59;6.65;;;6.00;;
31378;SDS011;61664;48.112;11.662;2023-02-15T13:13:45;6.78;;;6.07;;
31378;SDS011;61664;48.112;11.662;2023-02-15T13:16:36;7.38;;;5.65;;
31378;SDS011;61664;48.112;11.662;2023-02-15T13:19:08;6.65;;;5.72;;
31378;SDS011;61664;48.112;11.662;2023-02-15T13:21:43;6.63;;;5.90;;
31378;SDS011;61664;48.112;11.662;2023-02-15T13:26:52;6.55;;;5.90;;
31378;SDS011;61664;48.112;11.662;2023-02-15T13:29:39;10.07;;;6.47;;
31378;SDS011;61664;48.112;11.662;2023-02-15T13:32:26;8.93;;;6.57;;
31378;SDS011;61664;48.112;11.662;2023-02-15T13:35:04;7.78;;;6.28;;
31378;SDS011;61664;48.112;11.662;2023-02-15T13:40:37;7.50;;;6.72;;
31378;SDS011;61664;48.112;11.662;2023-02-15T13:54:43;6.78;;;5.95;;
31378;SDS011;61664;48.112;11.662;2023-02-15T13:58:02;7.05;;;6.40;;
31378;SDS011;61664;48.112;11.662;2023-02-15T14:01:09;7.03;;;6.35;;
31378;SDS011;61664;48.112;11.662;2023-02-15T14:12:46;6.55;;;5.95;;
31378;SDS011;61664;48.112;11.662;2023-02-15T14:15:39;7.32;;;6.63;;
31378;SDS011;61664;48.112;11.662;2023-02-15T14:18:19;8.27;;;7.45;;
31378;SDS011;61664;48.112;11.662;2023-02-15T14:20:59;7.55;;;6.70;;
31378;SDS011;61664;48.112;11.662;2023-02-15T14:27:33;12.70;;;6.90;;
31378;SDS011;61664;48.112;11.662;2023-02-15T14:30:00;13.25;;;7.32;;
31378;SDS011;61664;48.112;11.662;2023-02-15T14:32:42;7.72;;;6.72;;
31378;SDS011;61664;48.112;11.662;2023-02-15T14:35:19;10.10;;;8.18;;
31378;SDS011;61664;48.112;11.662;2023-02-15T14:44:10;9.90;;;7.15;;
31378;SDS011;61664;48.112;11.662;2023-02-15T14:46:49;7.57;;;6.82;;
31378;SDS011;61664;48.112;11.662;2023-02-15T14:49:26;8.88;;;7.95;;
31378;SDS011;61664;48.112;11.662;2023-02-15T14:52:07;9.63;;;8.63;;
31378;SDS011;61664;48.112;11.662;2023-02-15T14:59:50;10.57;;;8.45;;
31378;SDS011;61664;48.112;11.662;2023-02-15T15:25:57;8.45;;;7.20;;
31378;SDS011;61664;48.112;11.662;2023-02-15T15:28:53;8.95;;;7.85;;
31378;SDS011;61664;48.112;11.662;2023-02-15T15:31:27;8.77;;;7.68;;
31378;SDS011;61664;48.112;11.662;2023-02-15T15:50:32;8.57;;;7.75;;
31378;SDS011;61664;48.112;11.662;2023-02-15T15:53:01;9.23;;;8.18;;
31378;SDS011;61664;48.112;11.662;2023-02-15T15:55:30;11.38;;;8.75;;
31378;SDS011;61664;48.112;11.662;2023-02-15T15:58:01;11.98;;;8.77;;
31378;SDS011;61664;48.112;11.662;2023-02-15T16:03:14;11.30;;;9.10;;
31378;SDS011;61664;48.112;11.662;2023-02-15T16:05:50;9.25;;;7.53;;
31378;SDS011;61664;48.112;11.662;2023-02-15T16:08:32;8.82;;;7.80;;
31378;SDS011;61664;48.112;11.662;2023-02-15T16:11:16;9.50;;;8.32;;
31378;SDS011;61664;48.112;11.662;2023-02-15T16:13:49;9.30;;;8.18;;
31378;SDS011;61664;48.112;11.662;2023-02-15T16:16:20;15.70;;;8.38;;
31378;SDS011;61664;48.112;11.662;2023-02-15T16:18:56;10.18;;;8.63;;
31378;SDS011;61664;48.112;11.662;2023-02-15T16:21:29;9.32;;;8.23;;
31378;SDS011;61664;48.112;11.662;2023-02-15T16:24:08;8.07;;;7.20;;
31378;SDS011;61664;48.112;11.662;2023-02-15T16:32:19;7.95;;;7.10;;
31378;SDS011;61664;48.112;11.662;2023-02-15T16:35:01;10.77;;;8.25;;
31378;SDS011;61664;48.112;11.662;2023-02-15T16:37:33;16.73;;;8.30;;
31378;SDS011;61664;48.112;11.662;2023-02-15T16:40:01;11.52;;;8.50;;
31378;SDS011;61664;48.112;11.662;2023-02-15T16:42:28;11.15;;;8.52;;
31378;SDS011;61664;48.112;11.662;2023-02-15T16:47:35;11.07;;;8.82;;
31378;SDS011;61664;48.112;11.662;2023-02-15T16:50:15;10.05;;;7.63;;
31378;SDS011;61664;48.112;11.662;2023-02-15T16:52:46;12.10;;;8.65;;
31378;SDS011;61664;48.112;11.662;2023-02-15T16:55:26;11.15;;;8.00;;
31378;SDS011;61664;48.112;11.662;2023-02-15T16:58:11;12.00;;;8.15;;
31378;SDS011;61664;48.112;11.662;2023-02-15T17:00:43;10.05;;;7.65;;
31378;SDS011;61664;48.112;11.662;2023-02-15T17:03:31;8.60;;;7.70;;
31378;SDS011;61664;48.112;11.662;2023-02-15T17:05:59;12.57;;;6.93;;
31378;SDS011;61664;48.112;11.662;2023-02-15T17:08:30;9.18;;;7.38;;
31378;SDS011;61664;48.112;11.662;2023-02-15T17:16:41;8.07;;;7.25;;
31378;SDS011;61664;48.112;11.662;2023-02-15T17:19:16;16.65;;;7.13;;
31378;SDS011;61664;48.112;11.662;2023-02-15T17:21:50;8.15;;;6.85;;
31378;SDS011;61664;48.112;11.662;2023-02-15T17:24:44;10.65;;;6.88;;
31378;SDS011;61664;48.112;11.662;2023-02-15T17:27:16;9.27;;;7.13;;
31378;SDS011;61664;48.112;11.662;2023-02-15T17:29:56;9.40;;;7.18;;
31378;SDS011;61664;48.112;11.662;2023-02-15T17:32:28;8.65;;;7.15;;
31378;SDS011;61664;48.112;11.662;2023-02-15T17:35:16;9.45;;;7.25;;
31378;SDS011;61664;48.112;11.662;2023-02-15T17:37:59;14.35;;;7.88;;
31378;SDS011;61664;48.112;11.662;2023-02-15T17:40:34;20.23;;;8.00;;
31378;SDS011;61664;48.112;11.662;2023-02-15T17:43:02;12.98;;;7.05;;
31378;SDS011;61664;48.112;11.662;2023-02-15T17:45:44;10.57;;;7.65;;
31378;SDS011;61664;48.112;11.662;2023-02-15T17:51:02;17.23;;;8.30;;
31378;SDS011;61664;48.112;11.662;2023-02-15T17:53:32;19.17;;;7.68;;
31378;SDS011;61664;48.112;11.662;2023-02-15T17:55:59;11.10;;;7.70;;
31378;SDS011;61664;48.112;11.662;2023-02-15T17:58:36;15.50;;;7.38;;
31378;SDS011;61664;48.112;11.662;2023-02-15T18:01:10;12.68;;;6.97;;
31378;SDS011;61664;48.112;11.662;2023-02-15T18:04:03;16.17;;;8.38;;
31378;SDS011;61664;48.112;11.662;2023-02-15T18:06:52;12.73;;;7.20;;
31378;SDS011;61664;48.112;11.662;2023-02-15T18:09:37;29.98;;;8.38;;
31378;SDS011;61664;48.112;11.662;2023-02-15T18:12:24;11.77;;;7.43;;
31378;SDS011;61664;48.112;11.662;2023-02-15T18:14:54;10.60;;;7.90;;
31378;SDS011;61664;48.112;11.662;2023-02-15T18:17:35;13.27;;;9.27;;
31378;SDS011;61664;48.112;11.662;2023-02-15T18:22:50;12.00;;;7.20;;
31378;SDS011;61664;48.112;11.662;2023-02-15T18:25:18;10.60;;;7.38;;
31378;SDS011;61664;48.112;11.662;2023-02-15T18:27:49;9.05;;;7.60;;
31378;SDS011;61664;48.112;11.662;2023-02-15T18:30:21;8.73;;;7.13;;
31378;SDS011;61664;48.112;11.662;2023-02-15T18:32:53;18.33;;;8.32;;
31378;SDS011;61664;48.112;11.662;2023-02-15T18:35:23;9.13;;;6.78;;
31378;SDS011;61664;48.112;11.662;2023-02-15T18:37:57;14.05;;;9.15;;